Moby Aki — IBVV — position and weather

sailwx.info

Track history (hours):
 
Tides and Currents Weather Stations Pressure Air Temp Water Temp Dewpoint Dewpoint Depression Visibility Wind Speed Wind Dir Waves Ship Positions

Moby Aki

Last reported at 2017-Apr-29 07:31 UTC. Time now 2017-Apr-29 07:35 UTC.
Position N 43°05' E 010°04'.

Length 175 m; draft 6.9 m.

Type: Ship. MMSI: 247132400.

Date/timePositionNaut miles runAvg speedWind from/ knotsBaromVisibWave heightAir tempDewpointWater temp
2017-Apr-29 07:31N 43°05' E 010°04'1427.1
2017-Apr-29 07:01N 43°18' E 010°08'1326.4
2017-Apr-29 06:31N 43°31' E 010°13'5 9.2
2017-Apr-29 06:00N 43°33' E 010°18'0 0.0
2017-Apr-29 05:30N 43°33' E 010°18'0 0.0
2017-Apr-29 05:00N 43°33' E 010°18'0 0.5
2017-Apr-29 04:30N 43°33' E 010°18'4 6.4
2017-Apr-29 03:57N 43°31' E 010°14'818.0
2017-Apr-29 03:30N 43°23' E 010°11'1121.1
2017-Apr-29 03:01N 43°13' E 010°06'1121.3
2017-Apr-29 02:30N 43°03' E 010°01'3 0.1
2017-Apr-27 21:46N 43°04' E 010°05'622.3
2017-Apr-27 21:30N 43°10' E 010°06'1122.2
2017-Apr-27 21:00N 43°21' E 010°10'1121.6
2017-Apr-27 20:30N 43°31' E 010°13'4 6.6
2017-Apr-27 19:54N 43°33' E 010°18'0 0.0
2017-Apr-27 19:30N 43°33' E 010°18'0 0.0
2017-Apr-27 19:00N 43°33' E 010°18'0 0.0
2017-Apr-27 18:27N 43°33' E 010°18'0 0.0
2017-Apr-27 18:00N 43°33' E 010°18'0 0.0
2017-Apr-27 17:30N 43°33' E 010°18'0 0.0
2017-Apr-27 16:54N 43°33' E 010°18'0 0.0
2017-Apr-27 16:27N 43°33' E 010°18'0 0.0
2017-Apr-27 16:00N 43°33' E 010°18'0 0.0
2017-Apr-27 15:30N 43°33' E 010°18'0 0.0
2017-Apr-27 15:00N 43°33' E 010°18'0 0.0
2017-Apr-27 13:48N 43°33' E 010°18'0 0.0
2017-Apr-27 13:30N 43°33' E 010°18'0 0.0
2017-Apr-27 13:00N 43°33' E 010°18'0 0.0
2017-Apr-27 12:30N 43°33' E 010°18'0 0.0
2017-Apr-27 12:00N 43°33' E 010°18'0 0.0
2017-Apr-27 11:29N 43°33' E 010°18'0 0.0
2017-Apr-27 10:59N 43°33' E 010°18'0 0.0
2017-Apr-27 10:29N 43°33' E 010°18'0 0.0
2017-Apr-27 09:59N 43°33' E 010°18'0 0.0
2017-Apr-27 09:29N 43°33' E 010°18'0 0.0
2017-Apr-27 08:59N 43°33' E 010°18'0 0.0
2017-Apr-27 08:29N 43°33' E 010°18'0 0.0
2017-Apr-27 07:50N 43°33' E 010°18'0 0.0
2017-Apr-27 07:29N 43°33' E 010°18'0 0.0
2017-Apr-27 06:59N 43°33' E 010°18'0 0.0
2017-Apr-27 06:31N 43°33' E 010°18'0 0.0
2017-Apr-27 06:00N 43°33' E 010°18'0 0.0
2017-Apr-27 05:30N 43°33' E 010°18'0 0.0
2017-Apr-27 05:00N 43°33' E 010°18'0 0.0
2017-Apr-27 04:30N 43°33' E 010°18'2 3.9
2017-Apr-27 04:00N 43°32' E 010°16'714.5
2017-Apr-27 03:30N 43°26' E 010°11'1223.9
2017-Apr-27 03:00N 43°14' E 010°06'1121.2
2017-Apr-27 02:30N 43°04' E 010°03'8 0.3
2017-Apr-25 22:50N 42°56' E 010°02'825.2
2017-Apr-25 22:31N 43°04' E 010°04'1325.1
2017-Apr-25 22:01N 43°16' E 010°08'1224.9
2017-Apr-25 21:31N 43°28' E 010°11'713.5
2017-Apr-25 21:00N 43°33' E 010°18'0 0.1
2017-Apr-25 20:30N 43°33' E 010°18'0 0.0
2017-Apr-25 20:01N 43°33' E 010°18'0 0.0
2017-Apr-25 19:30N 43°33' E 010°18'0 0.2
2017-Apr-25 19:01N 43°33' E 010°18'611.3
2017-Apr-25 18:31N 43°29' E 010°13'1326.7
2017-Apr-25 18:00N 43°16' E 010°09'1326.7
2017-Apr-25 17:30N 43°03' E 010°05'4 0.2
2017-Apr-24 22:00N 42°59' E 010°02'1121.9
2017-Apr-24 21:30N 43°09' E 010°06'1121.7
2017-Apr-24 21:00N 43°20' E 010°09'1122.1
2017-Apr-24 20:31N 43°31' E 010°12'5 8.8
2017-Apr-24 19:58N 43°33' E 010°18'0 0.0
2017-Apr-24 19:28N 43°33' E 010°18'0 0.0
2017-Apr-24 18:55N 43°33' E 010°18'0 0.0
2017-Apr-24 18:28N 43°33' E 010°18'0 0.0
2017-Apr-24 17:55N 43°33' E 010°18'0 0.0
2017-Apr-24 17:19N 43°33' E 010°18'0 0.0
2017-Apr-24 16:58N 43°33' E 010°18'0 0.0
2017-Apr-24 16:28N 43°33' E 010°18'0 0.0
2017-Apr-24 16:00N 43°33' E 010°18'0 0.0
2017-Apr-24 15:30N 43°33' E 010°18'0 0.0
2017-Apr-24 15:00N 43°33' E 010°18'0 0.0
2017-Apr-24 14:30N 43°33' E 010°18'0 0.0
2017-Apr-24 13:30N 43°33' E 010°18'0 0.0
2017-Apr-24 13:00N 43°33' E 010°18'0 0.0
2017-Apr-24 12:30N 43°33' E 010°18'0 0.0
2017-Apr-24 11:57N 43°33' E 010°18'0 0.0
2017-Apr-24 11:30N 43°33' E 010°18'0 0.0
2017-Apr-24 11:00N 43°33' E 010°18'0 0.0
2017-Apr-24 10:30N 43°33' E 010°18'0 0.0
2017-Apr-24 10:00N 43°33' E 010°18'0 0.0
2017-Apr-24 09:28N 43°33' E 010°18'0 0.0
2017-Apr-24 08:58N 43°33' E 010°18'0 0.0
2017-Apr-24 08:28N 43°33' E 010°18'0 0.0
2017-Apr-24 07:58N 43°33' E 010°18'0 0.0
2017-Apr-24 07:28N 43°33' E 010°18'0 0.0
2017-Apr-24 06:58N 43°33' E 010°18'0 0.0
2017-Apr-24 06:28N 43°33' E 010°18'0 0.0
2017-Apr-24 05:58N 43°33' E 010°18'0 0.0
2017-Apr-24 05:28N 43°33' E 010°18'0 0.0
2017-Apr-24 04:58N 43°33' E 010°18'0 0.0
2017-Apr-24 04:27N 43°33' E 010°18'3 5.6
2017-Apr-24 04:00N 43°31' E 010°15'918.3
2017-Apr-24 03:30N 43°23' E 010°09'1121.0
2017-Apr-24 03:00N 43°13' E 010°06'1021.0
2017-Apr-24 02:30N 43°03' E 010°03'6 0.2
2017-Apr-22 22:50N 42°57' E 010°00'825.5
2017-Apr-22 22:31N 43°05' E 010°03'1325.2
2017-Apr-22 22:01N 43°17' E 010°08'1325.0
2017-Apr-22 21:31N 43°29' E 010°12'611.6
2017-Apr-22 21:01N 43°33' E 010°18'0 0.0
2017-Apr-22 20:30N 43°33' E 010°18'0 0.0
2017-Apr-22 20:00N 43°33' E 010°18'0 0.0
2017-Apr-22 19:30N 43°33' E 010°18'0 0.6
2017-Apr-22 19:00N 43°33' E 010°18'612.9
2017-Apr-22 18:31N 43°28' E 010°13'1326.3
2017-Apr-22 18:01N 43°15' E 010°09'1326.5
2017-Apr-22 17:30N 43°02' E 010°05'5 0.3
2017-Apr-21 22:16N 42°57' E 010°03'622.3
2017-Apr-21 22:00N 43°02' E 010°05'1122.1
2017-Apr-21 21:30N 43°13' E 010°08'1122.1
2017-Apr-21 21:00N 43°24' E 010°10'918.1
2017-Apr-21 20:30N 43°32' E 010°16'2 3.2
2017-Apr-21 19:59N 43°33' E 010°18'0 0.0
2017-Apr-21 19:29N 43°33' E 010°18'0 0.0
2017-Apr-21 18:59N 43°33' E 010°18'0 0.0
2017-Apr-21 18:29N 43°33' E 010°18'0 0.0
2017-Apr-21 17:58N 43°33' E 010°18'0 0.0
2017-Apr-21 17:28N 43°33' E 010°18'0 0.0
2017-Apr-21 16:58N 43°33' E 010°18'0 0.0
2017-Apr-21 16:28N 43°33' E 010°18'0 0.0
2017-Apr-21 15:58N 43°33' E 010°18'0 0.0
2017-Apr-21 15:28N 43°33' E 010°18'0 0.0
2017-Apr-21 14:59N 43°33' E 010°18'0 0.0
2017-Apr-21 14:29N 43°33' E 010°18'0 0.0
2017-Apr-21 13:29N 43°33' E 010°18'0 0.0
2017-Apr-21 12:55N 43°33' E 010°18'0 0.0
2017-Apr-21 12:28N 43°33' E 010°18'0 0.0
2017-Apr-21 11:58N 43°33' E 010°18'0 0.0
2017-Apr-21 11:22N 43°33' E 010°18'0 0.0
2017-Apr-21 10:58N 43°33' E 010°18'0 0.0
2017-Apr-21 10:28N 43°33' E 010°18'0 0.0
2017-Apr-21 09:58N 43°33' E 010°18'0 0.0
2017-Apr-21 09:27N 43°33' E 010°18'0 0.0
2017-Apr-21 09:00N 43°33' E 010°18'0 0.0
2017-Apr-21 08:30N 43°33' E 010°18'0 0.0
2017-Apr-21 07:48N 43°33' E 010°18'0 0.0
2017-Apr-21 07:30N 43°33' E 010°18'0 0.0
2017-Apr-21 07:00N 43°33' E 010°18'0 0.0
2017-Apr-21 06:30N 43°33' E 010°18'0 0.0
2017-Apr-21 06:00N 43°33' E 010°18'0 0.0
2017-Apr-21 05:30N 43°33' E 010°18'0 0.0
2017-Apr-21 05:00N 43°33' E 010°18'0 0.0
2017-Apr-21 04:30N 43°33' E 010°18'2 5.1
2017-Apr-21 04:00N 43°31' E 010°16'917.3
2017-Apr-21 03:30N 43°23' E 010°11'1020.9
2017-Apr-21 03:00N 43°14' E 010°06'1121.0
2017-Apr-21 02:30N 43°04' E 010°02'4 0.1
2017-Apr-19 21:51N 43°01' E 010°06'821.8
2017-Apr-19 21:30N 43°08' E 010°08'1121.7
2017-Apr-19 21:00N 43°19' E 010°09'1121.8
2017-Apr-19 20:31N 43°30' E 010°13'510.3
2017-Apr-19 20:00N 43°33' E 010°18'0 0.1
2017-Apr-19 19:31N 43°33' E 010°18'0 0.0
2017-Apr-19 19:01N 43°33' E 010°18'0 0.0
2017-Apr-19 18:30N 43°33' E 010°18'0 0.0
2017-Apr-19 18:00N 43°33' E 010°18'0 0.0
2017-Apr-19 17:30N 43°33' E 010°18'0 0.0
2017-Apr-19 17:01N 43°33' E 010°18'0 0.0
2017-Apr-19 16:30N 43°33' E 010°18'0 0.0
2017-Apr-19 16:00N 43°33' E 010°18'0 0.0
2017-Apr-19 15:31N 43°33' E 010°18'0 0.0
2017-Apr-19 15:00N 43°33' E 010°18'0 0.0
2017-Apr-19 14:30N 43°33' E 010°18'0 0.0
2017-Apr-19 13:30N 43°33' E 010°18'0 0.0
2017-Apr-19 13:00N 43°33' E 010°18'0 0.0
2017-Apr-19 12:31N 43°33' E 010°18'0 0.0
2017-Apr-19 12:00N 43°33' E 010°18'0 0.0
2017-Apr-19 11:30N 43°33' E 010°18'0 0.0
2017-Apr-19 11:00N 43°33' E 010°18'0 0.0
2017-Apr-19 10:30N 43°33' E 010°18'0 0.0
2017-Apr-19 10:00N 43°33' E 010°18'0 0.0
2017-Apr-19 09:31N 43°33' E 010°18'0 0.0
2017-Apr-19 09:01N 43°33' E 010°18'0 0.0
2017-Apr-19 08:30N 43°33' E 010°18'0 0.0
2017-Apr-19 08:00N 43°33' E 010°18'  
Track history (hours):
 
Tides and Currents Weather Stations Pressure Air Temp Water Temp Dewpoint Dewpoint Depression Visibility Wind Speed Wind Dir Waves Ship Positions

Moby Aki

Last reported at 2017-Apr-29 07:31 UTC. Time now 2017-Apr-29 07:35 UTC.
Position N 43°05' E 010°04'.

Length 175 m; draft 6.9 m.

Type: Ship. MMSI: 247132400.

Date/timePositionNaut miles runAvg speedWind from/ knotsBaromVisibWave heightAir tempDewpointWater temp
2017-Apr-29 07:31N 43°05' E 010°04'1427.1
2017-Apr-29 07:01N 43°18' E 010°08'1326.4
2017-Apr-29 06:31N 43°31' E 010°13'5 9.2
2017-Apr-29 06:00N 43°33' E 010°18'0 0.0
2017-Apr-29 05:30N 43°33' E 010°18'0 0.0
2017-Apr-29 05:00N 43°33' E 010°18'0 0.5
2017-Apr-29 04:30N 43°33' E 010°18'4 6.4
2017-Apr-29 03:57N 43°31' E 010°14'818.0
2017-Apr-29 03:30N 43°23' E 010°11'1121.1
2017-Apr-29 03:01N 43°13' E 010°06'1121.3
2017-Apr-29 02:30N 43°03' E 010°01'3 0.1
2017-Apr-27 21:46N 43°04' E 010°05'622.3
2017-Apr-27 21:30N 43°10' E 010°06'1122.2
2017-Apr-27 21:00N 43°21' E 010°10'1121.6
2017-Apr-27 20:30N 43°31' E 010°13'4 6.6
2017-Apr-27 19:54N 43°33' E 010°18'0 0.0
2017-Apr-27 19:30N 43°33' E 010°18'0 0.0
2017-Apr-27 19:00N 43°33' E 010°18'0 0.0
2017-Apr-27 18:27N 43°33' E 010°18'0 0.0
2017-Apr-27 18:00N 43°33' E 010°18'0 0.0
2017-Apr-27 17:30N 43°33' E 010°18'0 0.0
2017-Apr-27 16:54N 43°33' E 010°18'0 0.0
2017-Apr-27 16:27N 43°33' E 010°18'0 0.0
2017-Apr-27 16:00N 43°33' E 010°18'0 0.0
2017-Apr-27 15:30N 43°33' E 010°18'0 0.0
2017-Apr-27 15:00N 43°33' E 010°18'0 0.0
2017-Apr-27 13:48N 43°33' E 010°18'0 0.0
2017-Apr-27 13:30N 43°33' E 010°18'0 0.0
2017-Apr-27 13:00N 43°33' E 010°18'0 0.0
2017-Apr-27 12:30N 43°33' E 010°18'0 0.0
2017-Apr-27 12:00N 43°33' E 010°18'0 0.0
2017-Apr-27 11:29N 43°33' E 010°18'0 0.0
2017-Apr-27 10:59N 43°33' E 010°18'0 0.0
2017-Apr-27 10:29N 43°33' E 010°18'0 0.0
2017-Apr-27 09:59N 43°33' E 010°18'0 0.0
2017-Apr-27 09:29N 43°33' E 010°18'0 0.0
2017-Apr-27 08:59N 43°33' E 010°18'0 0.0
2017-Apr-27 08:29N 43°33' E 010°18'0 0.0
2017-Apr-27 07:50N 43°33' E 010°18'0 0.0
2017-Apr-27 07:29N 43°33' E 010°18'0 0.0
2017-Apr-27 06:59N 43°33' E 010°18'0 0.0
2017-Apr-27 06:31N 43°33' E 010°18'0 0.0
2017-Apr-27 06:00N 43°33' E 010°18'0 0.0
2017-Apr-27 05:30N 43°33' E 010°18'0 0.0
2017-Apr-27 05:00N 43°33' E 010°18'0 0.0
2017-Apr-27 04:30N 43°33' E 010°18'2 3.9
2017-Apr-27 04:00N 43°32' E 010°16'714.5
2017-Apr-27 03:30N 43°26' E 010°11'1223.9
2017-Apr-27 03:00N 43°14' E 010°06'1121.2
2017-Apr-27 02:30N 43°04' E 010°03'8 0.3
2017-Apr-25 22:50N 42°56' E 010°02'825.2
2017-Apr-25 22:31N 43°04' E 010°04'1325.1
2017-Apr-25 22:01N 43°16' E 010°08'1224.9
2017-Apr-25 21:31N 43°28' E 010°11'713.5
2017-Apr-25 21:00N 43°33' E 010°18'0 0.1
2017-Apr-25 20:30N 43°33' E 010°18'0 0.0
2017-Apr-25 20:01N 43°33' E 010°18'0 0.0
2017-Apr-25 19:30N 43°33' E 010°18'0 0.2
2017-Apr-25 19:01N 43°33' E 010°18'611.3
2017-Apr-25 18:31N 43°29' E 010°13'1326.7
2017-Apr-25 18:00N 43°16' E 010°09'1326.7
2017-Apr-25 17:30N 43°03' E 010°05'4 0.2
2017-Apr-24 22:00N 42°59' E 010°02'1121.9
2017-Apr-24 21:30N 43°09' E 010°06'1121.7
2017-Apr-24 21:00N 43°20' E 010°09'1122.1
2017-Apr-24 20:31N 43°31' E 010°12'5 8.8
2017-Apr-24 19:58N 43°33' E 010°18'0 0.0
2017-Apr-24 19:28N 43°33' E 010°18'0 0.0
2017-Apr-24 18:55N 43°33' E 010°18'0 0.0
2017-Apr-24 18:28N 43°33' E 010°18'0 0.0
2017-Apr-24 17:55N 43°33' E 010°18'0 0.0
2017-Apr-24 17:19N 43°33' E 010°18'0 0.0
2017-Apr-24 16:58N 43°33' E 010°18'0 0.0
2017-Apr-24 16:28N 43°33' E 010°18'0 0.0
2017-Apr-24 16:00N 43°33' E 010°18'0 0.0
2017-Apr-24 15:30N 43°33' E 010°18'0 0.0
2017-Apr-24 15:00N 43°33' E 010°18'0 0.0
2017-Apr-24 14:30N 43°33' E 010°18'0 0.0
2017-Apr-24 13:30N 43°33' E 010°18'0 0.0
2017-Apr-24 13:00N 43°33' E 010°18'0 0.0
2017-Apr-24 12:30N 43°33' E 010°18'0 0.0
2017-Apr-24 11:57N 43°33' E 010°18'0 0.0
2017-Apr-24 11:30N 43°33' E 010°18'0 0.0
2017-Apr-24 11:00N 43°33' E 010°18'0 0.0
2017-Apr-24 10:30N 43°33' E 010°18'0 0.0
2017-Apr-24 10:00N 43°33' E 010°18'0 0.0
2017-Apr-24 09:28N 43°33' E 010°18'0 0.0
2017-Apr-24 08:58N 43°33' E 010°18'0 0.0
2017-Apr-24 08:28N 43°33' E 010°18'0 0.0
2017-Apr-24 07:58N 43°33' E 010°18'0 0.0
2017-Apr-24 07:28N 43°33' E 010°18'0 0.0
2017-Apr-24 06:58N 43°33' E 010°18'0 0.0
2017-Apr-24 06:28N 43°33' E 010°18'0 0.0
2017-Apr-24 05:58N 43°33' E 010°18'0 0.0
2017-Apr-24 05:28N 43°33' E 010°18'0 0.0
2017-Apr-24 04:58N 43°33' E 010°18'0 0.0
2017-Apr-24 04:27N 43°33' E 010°18'3 5.6
2017-Apr-24 04:00N 43°31' E 010°15'918.3
2017-Apr-24 03:30N 43°23' E 010°09'1121.0
2017-Apr-24 03:00N 43°13' E 010°06'1021.0
2017-Apr-24 02:30N 43°03' E 010°03'6 0.2
2017-Apr-22 22:50N 42°57' E 010°00'825.5
2017-Apr-22 22:31N 43°05' E 010°03'1325.2
2017-Apr-22 22:01N 43°17' E 010°08'1325.0
2017-Apr-22 21:31N 43°29' E 010°12'611.6
2017-Apr-22 21:01N 43°33' E 010°18'0 0.0
2017-Apr-22 20:30N 43°33' E 010°18'0 0.0
2017-Apr-22 20:00N 43°33' E 010°18'0 0.0
2017-Apr-22 19:30N 43°33' E 010°18'0 0.6
2017-Apr-22 19:00N 43°33' E 010°18'612.9
2017-Apr-22 18:31N 43°28' E 010°13'1326.3
2017-Apr-22 18:01N 43°15' E 010°09'1326.5
2017-Apr-22 17:30N 43°02' E 010°05'5 0.3
2017-Apr-21 22:16N 42°57' E 010°03'622.3
2017-Apr-21 22:00N 43°02' E 010°05'1122.1
2017-Apr-21 21:30N 43°13' E 010°08'1122.1
2017-Apr-21 21:00N 43°24' E 010°10'918.1
2017-Apr-21 20:30N 43°32' E 010°16'2 3.2
2017-Apr-21 19:59N 43°33' E 010°18'0 0.0
2017-Apr-21 19:29N 43°33' E 010°18'0 0.0
2017-Apr-21 18:59N 43°33' E 010°18'0 0.0
2017-Apr-21 18:29N 43°33' E 010°18'0 0.0
2017-Apr-21 17:58N 43°33' E 010°18'0 0.0
2017-Apr-21 17:28N 43°33' E 010°18'0 0.0
2017-Apr-21 16:58N 43°33' E 010°18'0 0.0
2017-Apr-21 16:28N 43°33' E 010°18'0 0.0
2017-Apr-21 15:58N 43°33' E 010°18'0 0.0
2017-Apr-21 15:28N 43°33' E 010°18'0 0.0
2017-Apr-21 14:59N 43°33' E 010°18'0 0.0
2017-Apr-21 14:29N 43°33' E 010°18'0 0.0
2017-Apr-21 13:29N 43°33' E 010°18'0 0.0
2017-Apr-21 12:55N 43°33' E 010°18'0 0.0
2017-Apr-21 12:28N 43°33' E 010°18'0 0.0
2017-Apr-21 11:58N 43°33' E 010°18'0 0.0
2017-Apr-21 11:22N 43°33' E 010°18'0 0.0
2017-Apr-21 10:58N 43°33' E 010°18'0 0.0
2017-Apr-21 10:28N 43°33' E 010°18'0 0.0
2017-Apr-21 09:58N 43°33' E 010°18'0 0.0
2017-Apr-21 09:27N 43°33' E 010°18'0 0.0
2017-Apr-21 09:00N 43°33' E 010°18'0 0.0
2017-Apr-21 08:30N 43°33' E 010°18'0 0.0
2017-Apr-21 07:48N 43°33' E 010°18'0 0.0
2017-Apr-21 07:30N 43°33' E 010°18'0 0.0
2017-Apr-21 07:00N 43°33' E 010°18'0 0.0
2017-Apr-21 06:30N 43°33' E 010°18'0 0.0
2017-Apr-21 06:00N 43°33' E 010°18'0 0.0
2017-Apr-21 05:30N 43°33' E 010°18'0 0.0
2017-Apr-21 05:00N 43°33' E 010°18'0 0.0
2017-Apr-21 04:30N 43°33' E 010°18'2 5.1
2017-Apr-21 04:00N 43°31' E 010°16'917.3
2017-Apr-21 03:30N 43°23' E 010°11'1020.9
2017-Apr-21 03:00N 43°14' E 010°06'1121.0
2017-Apr-21 02:30N 43°04' E 010°02'4 0.1
2017-Apr-19 21:51N 43°01' E 010°06'821.8
2017-Apr-19 21:30N 43°08' E 010°08'1121.7
2017-Apr-19 21:00N 43°19' E 010°09'1121.8
2017-Apr-19 20:31N 43°30' E 010°13'510.3
2017-Apr-19 20:00N 43°33' E 010°18'0 0.1
2017-Apr-19 19:31N 43°33' E 010°18'0 0.0
2017-Apr-19 19:01N 43°33' E 010°18'0 0.0
2017-Apr-19 18:30N 43°33' E 010°18'0 0.0
2017-Apr-19 18:00N 43°33' E 010°18'0 0.0
2017-Apr-19 17:30N 43°33' E 010°18'0 0.0
2017-Apr-19 17:01N 43°33' E 010°18'0 0.0
2017-Apr-19 16:30N 43°33' E 010°18'0 0.0
2017-Apr-19 16:00N 43°33' E 010°18'0 0.0
2017-Apr-19 15:31N 43°33' E 010°18'0 0.0
2017-Apr-19 15:00N 43°33' E 010°18'0 0.0
2017-Apr-19 14:30N 43°33' E 010°18'0 0.0
2017-Apr-19 13:30N 43°33' E 010°18'0 0.0
2017-Apr-19 13:00N 43°33' E 010°18'0 0.0
2017-Apr-19 12:31N 43°33' E 010°18'0 0.0
2017-Apr-19 12:00N 43°33' E 010°18'0 0.0
2017-Apr-19 11:30N 43°33' E 010°18'0 0.0
2017-Apr-19 11:00N 43°33' E 010°18'0 0.0
2017-Apr-19 10:30N 43°33' E 010°18'0 0.0
2017-Apr-19 10:00N 43°33' E 010°18'0 0.0
2017-Apr-19 09:31N 43°33' E 010°18'0 0.0
2017-Apr-19 09:01N 43°33' E 010°18'0 0.0
2017-Apr-19 08:30N 43°33' E 010°18'0 0.0
2017-Apr-19 08:00N 43°33' E 010°18'  

Dump ship's entire track history